PIA368 OPKC-OPIS
Flight info
| Callsign | PIA368 |
|---|---|
| Flight time | 1h 47m |
| Altitude | 37000 |
| Route | BADUL J112 MOLTA J142 MATIN J121 INDEK |
| Aircraft | B772/H-SDE2E3FGHIJ5LORVWXY/LB1D1 |
Departure
| Time | 2026-04-28 14:29 |
|---|---|
| Airport | Jinnah International Airport (OPKC) |
Arrival
| Time | 2026-04-28 16:17 |
|---|---|
| Airport | Islamabad International Airport (OPIS) |
| Time | Latitude | Longitude | Altitude | Speed | Heading |
|---|---|---|---|---|---|
| 2026-04-28 12:52 | 24.90252 | 67.16650 | 105 ft | 0 kts | 204° |
| 2026-04-28 14:20 | 24.90253 | 67.16651 | 105 ft | 2 kts | 204° |
| 2026-04-28 14:20 | 24.90276 | 67.16664 | 106 ft | 4 kts | 210° |
| 2026-04-28 14:20 | 24.90298 | 67.16677 | 104 ft | 2 kts | 205° |
| 2026-04-28 14:21 | 24.90318 | 67.16689 | 104 ft | 4 kts | 223° |
| 2026-04-28 14:21 | 24.90331 | 67.16707 | 105 ft | 4 kts | 264° |
| 2026-04-28 14:21 | 24.90330 | 67.16722 | 103 ft | 4 kts | 322° |
| 2026-04-28 14:21 | 24.90309 | 67.16731 | 105 ft | 4 kts | 345° |
| 2026-04-28 14:22 | 24.90283 | 67.16739 | 105 ft | 4 kts | 345° |
| 2026-04-28 14:22 | 24.90257 | 67.16746 | 104 ft | 4 kts | 345° |
| 2026-04-28 14:22 | 24.90248 | 67.16749 | 104 ft | 0 kts | 344° |
| 2026-04-28 14:24 | 24.90250 | 67.16748 | 104 ft | 2 kts | 344° |
| 2026-04-28 14:24 | 24.90273 | 67.16741 | 104 ft | 5 kts | 344° |
| 2026-04-28 14:25 | 24.90322 | 67.16727 | 103 ft | 9 kts | 345° |
| 2026-04-28 14:25 | 24.90392 | 67.16706 | 107 ft | 10 kts | 345° |
| 2026-04-28 14:25 | 24.90462 | 67.16700 | 106 ft | 10 kts | 26° |
| 2026-04-28 14:25 | 24.90497 | 67.16781 | 109 ft | 14 kts | 73° |
| 2026-04-28 14:26 | 24.90528 | 67.16898 | 109 ft | 18 kts | 74° |
| 2026-04-28 14:26 | 24.90564 | 67.17042 | 108 ft | 21 kts | 75° |
| 2026-04-28 14:26 | 24.90606 | 67.17209 | 107 ft | 24 kts | 74° |
| 2026-04-28 14:26 | 24.90656 | 67.17384 | 109 ft | 22 kts | 62° |
| 2026-04-28 14:27 | 24.90738 | 67.17462 | 108 ft | 8 kts | 27° |
| 2026-04-28 14:27 | 24.90741 | 67.17464 | 108 ft | 0 kts | 27° |
| 2026-04-28 14:28 | 24.90785 | 67.17487 | 109 ft | 13 kts | 23° |
| 2026-04-28 14:28 | 24.90854 | 67.17483 | 111 ft | 9 kts | 328° |
| 2026-04-28 14:28 | 24.90868 | 67.17447 | 111 ft | 4 kts | 261° |
| 2026-04-28 14:28 | 24.90859 | 67.17413 | 110 ft | 5 kts | 253° |
| 2026-04-28 14:29 | 24.90845 | 67.17354 | 109 ft | 20 kts | 255° |
| 2026-04-28 14:29 | 24.90758 | 67.17008 | 111 ft | 94 kts | 255° |
| 2026-04-28 14:29 | 24.90481 | 67.15934 | 168 ft | 189 kts | 253° |
| 2026-04-28 14:29 | 24.90076 | 67.14434 | 987 ft | 215 kts | 253° |
| 2026-04-28 14:30 | 24.89662 | 67.12803 | 2329 ft | 223 kts | 255° |
| 2026-04-28 14:30 | 24.89548 | 67.11116 | 3381 ft | 226 kts | 282° |
| 2026-04-28 14:30 | 24.90434 | 67.09656 | 4122 ft | 242 kts | 321° |
| 2026-04-28 14:30 | 24.92064 | 67.09098 | 4967 ft | 255 kts | 356° |
| 2026-04-28 14:31 | 24.93831 | 67.09500 | 5784 ft | 266 kts | 20° |
| 2026-04-28 14:31 | 24.95412 | 67.10666 | 6423 ft | 283 kts | 44° |
| 2026-04-28 14:31 | 24.96715 | 67.12329 | 7035 ft | 295 kts | 48° |
| 2026-04-28 14:31 | 24.98025 | 67.14112 | 7854 ft | 301 kts | 48° |
| 2026-04-28 14:32 | 24.99343 | 67.15917 | 8756 ft | 304 kts | 48° |
| 2026-04-28 14:32 | 25.00683 | 67.17742 | 9643 ft | 308 kts | 47° |
| 2026-04-28 14:32 | 25.02063 | 67.19604 | 10250 ft | 323 kts | 47° |
| 2026-04-28 14:32 | 25.03552 | 67.21597 | 10454 ft | 351 kts | 47° |
| 2026-04-28 14:33 | 25.05167 | 67.23751 | 10683 ft | 376 kts | 47° |
| 2026-04-28 14:33 | 25.06862 | 67.26011 | 11301 ft | 388 kts | 48° |
| 2026-04-28 14:33 | 25.08582 | 67.28305 | 12123 ft | 395 kts | 48° |
| 2026-04-28 14:33 | 25.10342 | 67.30651 | 13012 ft | 399 kts | 48° |
| 2026-04-28 14:34 | 25.13937 | 67.35440 | 14641 ft | 408 kts | 48° |
| 2026-04-28 14:34 | 25.15764 | 67.37875 | 15427 ft | 411 kts | 48° |
| 2026-04-28 14:34 | 25.17579 | 67.40295 | 16194 ft | 415 kts | 48° |
| 2026-04-28 14:35 | 25.19428 | 67.42761 | 16944 ft | 419 kts | 47° |
| 2026-04-28 14:35 | 25.21295 | 67.45252 | 17665 ft | 423 kts | 47° |
| 2026-04-28 14:35 | 25.23274 | 67.47686 | 18327 ft | 425 kts | 42° |
| 2026-04-28 14:35 | 25.25480 | 67.49874 | 18944 ft | 426 kts | 36° |
| 2026-04-28 14:36 | 25.27753 | 67.51936 | 19546 ft | 429 kts | 36° |
| 2026-04-28 14:36 | 25.30080 | 67.54025 | 20133 ft | 433 kts | 36° |
| 2026-04-28 14:36 | 25.32428 | 67.56135 | 20728 ft | 436 kts | 35° |
| 2026-04-28 14:36 | 25.34790 | 67.58267 | 21320 ft | 440 kts | 35° |
| 2026-04-28 14:37 | 25.37168 | 67.60426 | 21874 ft | 443 kts | 35° |
| 2026-04-28 14:37 | 25.39563 | 67.62609 | 22418 ft | 447 kts | 35° |
| 2026-04-28 14:37 | 25.41979 | 67.64819 | 22953 ft | 451 kts | 35° |
| 2026-04-28 14:37 | 25.44370 | 67.67009 | 23443 ft | 454 kts | 35° |
| 2026-04-28 14:38 | 25.46817 | 67.69253 | 23893 ft | 457 kts | 35° |
| 2026-04-28 14:38 | 25.49276 | 67.71509 | 24350 ft | 461 kts | 35° |
| 2026-04-28 14:38 | 25.51757 | 67.73785 | 24765 ft | 464 kts | 35° |
| 2026-04-28 14:38 | 25.54265 | 67.76088 | 25216 ft | 468 kts | 35° |
| 2026-04-28 14:39 | 25.56784 | 67.78402 | 25672 ft | 471 kts | 35° |
| 2026-04-28 14:39 | 25.59282 | 67.80698 | 26098 ft | 474 kts | 35° |
| 2026-04-28 14:39 | 25.61833 | 67.83044 | 26522 ft | 478 kts | 35° |
| 2026-04-28 14:39 | 25.64409 | 67.85414 | 26944 ft | 481 kts | 35° |
| 2026-04-28 14:40 | 25.66991 | 67.87791 | 27370 ft | 485 kts | 35° |
| 2026-04-28 14:40 | 25.68717 | 67.89380 | 27645 ft | 487 kts | 35° |
| 2026-04-28 14:40 | 25.72216 | 67.92607 | 28186 ft | 491 kts | 35° |
| 2026-04-28 14:40 | 25.74861 | 67.95047 | 28597 ft | 494 kts | 35° |
| 2026-04-28 14:41 | 25.77510 | 67.97490 | 28990 ft | 497 kts | 35° |
| 2026-04-28 14:41 | 25.80186 | 67.99961 | 29367 ft | 501 kts | 35° |
| 2026-04-28 14:41 | 25.82843 | 68.02416 | 29723 ft | 504 kts | 35° |
| 2026-04-28 14:41 | 25.85539 | 68.04909 | 30027 ft | 506 kts | 35° |
| 2026-04-28 14:42 | 25.88246 | 68.07414 | 30366 ft | 507 kts | 35° |
| 2026-04-28 14:42 | 25.90955 | 68.09923 | 30708 ft | 507 kts | 35° |
| 2026-04-28 14:42 | 25.93675 | 68.12444 | 31016 ft | 508 kts | 35° |
| 2026-04-28 14:42 | 25.96361 | 68.14934 | 31276 ft | 510 kts | 35° |
| 2026-04-28 14:43 | 25.99090 | 68.17464 | 31566 ft | 510 kts | 34° |
| 2026-04-28 14:43 | 26.01808 | 68.19988 | 31937 ft | 508 kts | 34° |
| 2026-04-28 14:43 | 26.04519 | 68.22507 | 32342 ft | 506 kts | 34° |
| 2026-04-28 14:43 | 26.07222 | 68.25020 | 32773 ft | 503 kts | 34° |
| 2026-04-28 14:44 | 26.09880 | 68.27492 | 33178 ft | 502 kts | 34° |
| 2026-04-28 14:44 | 26.12553 | 68.29978 | 33558 ft | 500 kts | 34° |
| 2026-04-28 14:44 | 26.15220 | 68.32460 | 33872 ft | 499 kts | 34° |
| 2026-04-28 14:44 | 26.17879 | 68.34937 | 34141 ft | 499 kts | 34° |
| 2026-04-28 14:45 | 26.20550 | 68.37424 | 34402 ft | 500 kts | 34° |
| 2026-04-28 14:45 | 26.23227 | 68.39895 | 34672 ft | 499 kts | 32° |
| 2026-04-28 14:45 | 26.25958 | 68.42270 | 34963 ft | 497 kts | 31° |
| 2026-04-28 14:45 | 26.28718 | 68.44587 | 35266 ft | 496 kts | 30° |
| 2026-04-28 14:46 | 26.31482 | 68.46887 | 35550 ft | 495 kts | 30° |
| 2026-04-28 14:46 | 26.34244 | 68.49196 | 35832 ft | 495 kts | 30° |
| 2026-04-28 14:46 | 26.36956 | 68.51483 | 36121 ft | 495 kts | 30° |
| 2026-04-28 14:46 | 26.39699 | 68.53813 | 36406 ft | 494 kts | 30° |
| 2026-04-28 14:47 | 26.42434 | 68.56147 | 36696 ft | 494 kts | 30° |
| 2026-04-28 14:47 | 26.45159 | 68.58478 | 36979 ft | 494 kts | 30° |
| 2026-04-28 14:47 | 26.47894 | 68.60818 | 37247 ft | 493 kts | 30° |
| 2026-04-28 14:47 | 26.50621 | 68.63152 | 37534 ft | 493 kts | 30° |
| 2026-04-28 14:48 | 26.53341 | 68.65480 | 37807 ft | 492 kts | 30° |
| 2026-04-28 14:48 | 26.56026 | 68.67779 | 38079 ft | 492 kts | 30° |
| 2026-04-28 14:48 | 26.58744 | 68.70107 | 38329 ft | 492 kts | 30° |
| 2026-04-28 14:48 | 26.61460 | 68.72434 | 38553 ft | 491 kts | 30° |
| 2026-04-28 14:49 | 26.64177 | 68.74752 | 38793 ft | 490 kts | 30° |
| 2026-04-28 14:49 | 26.66892 | 68.77061 | 39028 ft | 489 kts | 30° |
| 2026-04-28 14:49 | 26.69593 | 68.79357 | 39255 ft | 488 kts | 30° |
| 2026-04-28 14:49 | 26.72296 | 68.81654 | 39469 ft | 487 kts | 30° |
| 2026-04-28 14:50 | 26.74967 | 68.83926 | 39663 ft | 487 kts | 30° |
| 2026-04-28 14:50 | 26.77662 | 68.86223 | 39879 ft | 486 kts | 30° |
| 2026-04-28 14:50 | 26.80351 | 68.88517 | 40088 ft | 486 kts | 30° |
| 2026-04-28 14:50 | 26.83037 | 68.90811 | 40295 ft | 485 kts | 30° |
| 2026-04-28 14:51 | 26.85718 | 68.93102 | 40482 ft | 485 kts | 30° |
| 2026-04-28 14:51 | 26.91104 | 68.97706 | 40598 ft | 489 kts | 30° |
| 2026-04-28 14:52 | 26.96493 | 69.02320 | 40625 ft | 488 kts | 30° |
| 2026-04-28 14:52 | 27.01865 | 69.06932 | 40626 ft | 483 kts | 30° |
| 2026-04-28 14:53 | 27.07199 | 69.11511 | 40621 ft | 480 kts | 30° |
| 2026-04-28 14:53 | 27.12467 | 69.16037 | 40628 ft | 479 kts | 30° |
| 2026-04-28 14:54 | 27.17771 | 69.20600 | 40635 ft | 480 kts | 30° |
| 2026-04-28 14:54 | 27.23092 | 69.25185 | 40636 ft | 482 kts | 30° |
| 2026-04-28 14:55 | 27.28388 | 69.29765 | 40624 ft | 484 kts | 31° |
| 2026-04-28 14:55 | 27.33703 | 69.34478 | 40625 ft | 486 kts | 31° |
| 2026-04-28 14:56 | 27.39008 | 69.39225 | 40629 ft | 487 kts | 31° |
| 2026-04-28 14:56 | 27.44288 | 69.43945 | 40631 ft | 488 kts | 31° |
| 2026-04-28 14:57 | 27.49617 | 69.48704 | 40631 ft | 488 kts | 31° |
| 2026-04-28 14:57 | 27.54914 | 69.53436 | 40633 ft | 488 kts | 31° |
| 2026-04-28 14:58 | 27.60231 | 69.58193 | 40633 ft | 488 kts | 31° |
| 2026-04-28 14:58 | 27.65546 | 69.62954 | 40633 ft | 487 kts | 31° |
| 2026-04-28 14:59 | 27.70849 | 69.67712 | 40634 ft | 486 kts | 31° |
| 2026-04-28 14:59 | 27.76151 | 69.72474 | 40634 ft | 486 kts | 31° |
| 2026-04-28 15:00 | 27.81427 | 69.77217 | 40636 ft | 486 kts | 31° |
| 2026-04-28 15:00 | 27.86695 | 69.81961 | 40638 ft | 486 kts | 31° |
| 2026-04-28 15:01 | 27.91989 | 69.86734 | 40634 ft | 486 kts | 31° |
| 2026-04-28 15:01 | 27.96401 | 69.90717 | 40638 ft | 487 kts | 31° |
| 2026-04-28 15:02 | 28.01709 | 69.95513 | 40636 ft | 487 kts | 31° |
| 2026-04-28 15:02 | 28.06988 | 70.00291 | 40637 ft | 488 kts | 31° |
| 2026-04-28 15:03 | 28.12297 | 70.05102 | 40644 ft | 488 kts | 31° |
| 2026-04-28 15:03 | 28.17600 | 70.09914 | 40634 ft | 488 kts | 31° |
| 2026-04-28 15:04 | 28.22911 | 70.14739 | 40632 ft | 489 kts | 31° |
| 2026-04-28 15:04 | 28.28186 | 70.19539 | 40633 ft | 489 kts | 31° |
| 2026-04-28 15:05 | 28.33493 | 70.24373 | 40634 ft | 489 kts | 31° |
| 2026-04-28 15:05 | 28.38630 | 70.29496 | 40636 ft | 496 kts | 39° |
| 2026-04-28 15:06 | 28.43355 | 70.35274 | 40629 ft | 498 kts | 40° |
| 2026-04-28 15:06 | 28.48004 | 70.41082 | 40631 ft | 498 kts | 40° |
| 2026-04-28 15:07 | 28.52692 | 70.46887 | 40629 ft | 498 kts | 40° |
| 2026-04-28 15:07 | 28.57408 | 70.52686 | 40630 ft | 498 kts | 40° |
| 2026-04-28 15:08 | 28.62091 | 70.58441 | 40632 ft | 498 kts | 40° |
| 2026-04-28 15:08 | 28.66798 | 70.64236 | 40630 ft | 498 kts | 40° |
| 2026-04-28 15:09 | 28.71498 | 70.70035 | 40629 ft | 497 kts | 40° |
| 2026-04-28 15:09 | 28.76168 | 70.75805 | 40628 ft | 497 kts | 40° |
| 2026-04-28 15:10 | 28.80867 | 70.81620 | 40628 ft | 497 kts | 40° |
| 2026-04-28 15:10 | 28.85532 | 70.87400 | 40633 ft | 497 kts | 40° |
| 2026-04-28 15:11 | 28.90213 | 70.93209 | 40621 ft | 497 kts | 40° |
| 2026-04-28 15:11 | 28.94902 | 70.99036 | 40627 ft | 497 kts | 40° |
| 2026-04-28 15:12 | 28.99556 | 71.04828 | 40625 ft | 497 kts | 40° |
| 2026-04-28 15:12 | 29.04232 | 71.10656 | 40626 ft | 497 kts | 40° |
| 2026-04-28 15:13 | 29.08903 | 71.16486 | 40625 ft | 497 kts | 40° |
| 2026-04-28 15:13 | 29.13550 | 71.22295 | 40625 ft | 497 kts | 40° |
| 2026-04-28 15:14 | 29.18235 | 71.28159 | 40621 ft | 498 kts | 40° |
| 2026-04-28 15:14 | 29.22911 | 71.34022 | 40623 ft | 498 kts | 40° |
| 2026-04-28 15:15 | 29.27581 | 71.39885 | 40621 ft | 499 kts | 40° |
| 2026-04-28 15:15 | 29.32221 | 71.45750 | 40619 ft | 500 kts | 41° |
| 2026-04-28 15:16 | 29.36852 | 71.51711 | 40627 ft | 500 kts | 41° |
| 2026-04-28 15:16 | 29.41472 | 71.57678 | 40614 ft | 501 kts | 41° |
| 2026-04-28 15:17 | 29.46108 | 71.63662 | 40615 ft | 501 kts | 41° |
| 2026-04-28 15:17 | 29.50713 | 71.69606 | 40616 ft | 501 kts | 41° |
| 2026-04-28 15:18 | 29.55351 | 71.75601 | 40622 ft | 502 kts | 41° |
| 2026-04-28 15:18 | 29.59991 | 71.81609 | 40618 ft | 502 kts | 41° |
| 2026-04-28 15:19 | 29.64611 | 71.87601 | 40617 ft | 502 kts | 41° |
| 2026-04-28 15:19 | 29.69245 | 71.93619 | 40619 ft | 503 kts | 41° |
| 2026-04-28 15:20 | 29.73885 | 71.99656 | 40617 ft | 503 kts | 41° |
| 2026-04-28 15:20 | 29.78489 | 72.05653 | 40615 ft | 502 kts | 41° |
| 2026-04-28 15:21 | 29.83121 | 72.11698 | 40614 ft | 502 kts | 41° |
| 2026-04-28 15:21 | 29.87758 | 72.17756 | 40612 ft | 502 kts | 42° |
| 2026-04-28 15:22 | 29.92364 | 72.23801 | 40612 ft | 502 kts | 42° |
| 2026-04-28 15:22 | 29.96940 | 72.29822 | 40611 ft | 501 kts | 42° |
| 2026-04-28 15:23 | 30.01535 | 72.35878 | 40610 ft | 501 kts | 42° |
| 2026-04-28 15:23 | 30.06132 | 72.41943 | 40610 ft | 501 kts | 42° |
| 2026-04-28 15:24 | 30.10698 | 72.47976 | 40608 ft | 501 kts | 42° |
| 2026-04-28 15:24 | 30.15285 | 72.54048 | 40614 ft | 501 kts | 42° |
| 2026-04-28 15:25 | 30.19905 | 72.60003 | 40616 ft | 496 kts | 38° |
| 2026-04-28 15:25 | 30.25122 | 72.65139 | 40623 ft | 489 kts | 31° |
| 2026-04-28 15:26 | 30.30507 | 72.69963 | 40607 ft | 489 kts | 31° |
| 2026-04-28 15:26 | 30.35855 | 72.74779 | 40612 ft | 490 kts | 31° |
| 2026-04-28 15:27 | 30.41237 | 72.79687 | 40616 ft | 491 kts | 31° |
| 2026-04-28 15:27 | 30.46602 | 72.84610 | 40623 ft | 492 kts | 31° |
| 2026-04-28 15:28 | 30.51935 | 72.89511 | 40622 ft | 492 kts | 32° |
| 2026-04-28 15:28 | 30.57312 | 72.94458 | 40633 ft | 493 kts | 32° |
| 2026-04-28 15:29 | 30.62704 | 72.99423 | 40636 ft | 494 kts | 32° |
| 2026-04-28 15:29 | 30.68094 | 73.04394 | 40640 ft | 494 kts | 32° |
| 2026-04-28 15:30 | 30.73441 | 73.09333 | 40648 ft | 494 kts | 32° |
| 2026-04-28 15:30 | 30.78834 | 73.14322 | 40647 ft | 494 kts | 32° |
| 2026-04-28 15:31 | 30.84228 | 73.19319 | 40652 ft | 494 kts | 32° |
| 2026-04-28 15:31 | 30.89594 | 73.24297 | 40650 ft | 494 kts | 32° |
| 2026-04-28 15:32 | 30.94975 | 73.29297 | 40650 ft | 494 kts | 32° |
| 2026-04-28 15:32 | 31.00314 | 73.34265 | 40655 ft | 493 kts | 32° |
| 2026-04-28 15:33 | 31.05676 | 73.39261 | 40658 ft | 493 kts | 32° |
| 2026-04-28 15:33 | 31.11049 | 73.44276 | 40657 ft | 493 kts | 33° |
| 2026-04-28 15:34 | 31.16402 | 73.49279 | 40661 ft | 492 kts | 33° |
| 2026-04-28 15:34 | 31.21754 | 73.54288 | 40660 ft | 492 kts | 33° |
| 2026-04-28 15:35 | 31.27067 | 73.59269 | 40661 ft | 493 kts | 33° |
| 2026-04-28 15:35 | 31.35110 | 73.66823 | 40665 ft | 494 kts | 33° |
| 2026-04-28 15:36 | 31.40451 | 73.71820 | 40659 ft | 490 kts | 29° |
| 2026-04-28 15:36 | 31.43428 | 73.73633 | 40661 ft | 475 kts | 11° |
| 2026-04-28 15:36 | 31.46631 | 73.74277 | 40678 ft | 463 kts | 356° |
| 2026-04-28 15:37 | 31.49809 | 73.74041 | 40672 ft | 456 kts | 344° |
| 2026-04-28 15:37 | 31.52862 | 73.73119 | 40680 ft | 452 kts | 340° |
| 2026-04-28 15:37 | 31.57912 | 73.71445 | 40682 ft | 455 kts | 340° |
| 2026-04-28 15:38 | 31.65042 | 73.69121 | 40460 ft | 452 kts | 340° |
| 2026-04-28 15:38 | 31.68047 | 73.68161 | 40082 ft | 453 kts | 340° |
| 2026-04-28 15:38 | 31.71111 | 73.67187 | 39638 ft | 455 kts | 340° |
| 2026-04-28 15:39 | 31.74177 | 73.66216 | 39188 ft | 457 kts | 340° |
| 2026-04-28 15:39 | 31.77254 | 73.65242 | 38743 ft | 459 kts | 340° |
| 2026-04-28 15:39 | 31.80335 | 73.64269 | 38505 ft | 456 kts | 340° |
| 2026-04-28 15:39 | 31.83404 | 73.63297 | 38108 ft | 458 kts | 340° |
| 2026-04-28 15:40 | 31.86493 | 73.62317 | 37561 ft | 461 kts | 340° |
| 2026-04-28 15:40 | 31.89605 | 73.61327 | 36976 ft | 465 kts | 341° |
| 2026-04-28 15:40 | 31.92709 | 73.60340 | 36363 ft | 469 kts | 341° |
| 2026-04-28 15:40 | 31.95873 | 73.59333 | 35736 ft | 473 kts | 341° |
| 2026-04-28 15:41 | 31.99064 | 73.58317 | 35074 ft | 477 kts | 342° |
| 2026-04-28 15:41 | 32.02280 | 73.57294 | 34381 ft | 480 kts | 342° |
| 2026-04-28 15:41 | 32.05530 | 73.56259 | 33648 ft | 485 kts | 342° |
| 2026-04-28 15:41 | 32.08809 | 73.55214 | 32766 ft | 489 kts | 342° |
| 2026-04-28 15:42 | 32.12113 | 73.54161 | 31888 ft | 492 kts | 342° |
| 2026-04-28 15:42 | 32.15429 | 73.53103 | 30988 ft | 495 kts | 342° |
| 2026-04-28 15:42 | 32.18731 | 73.52048 | 30102 ft | 498 kts | 342° |
| 2026-04-28 15:42 | 32.22124 | 73.50963 | 29352 ft | 496 kts | 342° |
| 2026-04-28 15:43 | 32.25392 | 73.49919 | 28524 ft | 489 kts | 342° |
| 2026-04-28 15:43 | 32.28663 | 73.48873 | 27636 ft | 483 kts | 342° |
| 2026-04-28 15:43 | 32.31889 | 73.47840 | 26778 ft | 477 kts | 342° |
| 2026-04-28 15:43 | 32.35082 | 73.46817 | 25948 ft | 471 kts | 342° |
| 2026-04-28 15:44 | 32.38199 | 73.45816 | 25138 ft | 466 kts | 342° |
| 2026-04-28 15:44 | 32.41314 | 73.44815 | 24314 ft | 463 kts | 342° |
| 2026-04-28 15:44 | 32.44411 | 73.43818 | 23501 ft | 459 kts | 342° |
| 2026-04-28 15:44 | 32.47492 | 73.42826 | 22563 ft | 456 kts | 342° |
| 2026-04-28 15:45 | 32.50542 | 73.41843 | 21727 ft | 451 kts | 342° |
| 2026-04-28 15:45 | 32.53569 | 73.40868 | 20935 ft | 446 kts | 342° |
| 2026-04-28 15:45 | 32.56545 | 73.39909 | 20169 ft | 440 kts | 342° |
| 2026-04-28 15:45 | 32.59488 | 73.38956 | 19961 ft | 438 kts | 344° |
| 2026-04-28 15:46 | 32.62392 | 73.38018 | 19064 ft | 436 kts | 344° |
| 2026-04-28 15:46 | 32.65300 | 73.37079 | 18319 ft | 431 kts | 344° |
| 2026-04-28 15:46 | 32.68172 | 73.36151 | 17574 ft | 425 kts | 344° |
| 2026-04-28 15:46 | 32.71009 | 73.35233 | 16857 ft | 420 kts | 344° |
| 2026-04-28 15:47 | 32.73818 | 73.34323 | 16138 ft | 415 kts | 344° |
| 2026-04-28 15:47 | 32.76596 | 73.33423 | 15434 ft | 411 kts | 344° |
| 2026-04-28 15:47 | 32.78417 | 73.32833 | 14970 ft | 408 kts | 344° |
| 2026-04-28 15:47 | 32.82023 | 73.31663 | 14084 ft | 401 kts | 344° |
| 2026-04-28 15:48 | 32.84715 | 73.30789 | 13419 ft | 397 kts | 344° |
| 2026-04-28 15:48 | 32.87366 | 73.29928 | 12764 ft | 393 kts | 344° |
| 2026-04-28 15:48 | 32.89109 | 73.29362 | 12334 ft | 390 kts | 344° |
| 2026-04-28 15:48 | 32.91720 | 73.28513 | 11738 ft | 385 kts | 344° |
| 2026-04-28 15:49 | 32.94300 | 73.27673 | 11077 ft | 383 kts | 344° |
| 2026-04-28 15:49 | 32.96840 | 73.26846 | 10767 ft | 370 kts | 344° |
| 2026-04-28 15:49 | 32.99281 | 73.26052 | 10594 ft | 356 kts | 344° |
| 2026-04-28 15:49 | 33.01626 | 73.25288 | 10432 ft | 342 kts | 344° |
| 2026-04-28 15:50 | 33.03851 | 73.24562 | 10279 ft | 328 kts | 344° |
| 2026-04-28 15:50 | 33.06016 | 73.23856 | 10138 ft | 316 kts | 344° |
| 2026-04-28 15:50 | 33.08099 | 73.23175 | 10015 ft | 304 kts | 344° |
| 2026-04-28 15:50 | 33.10114 | 73.22517 | 9808 ft | 296 kts | 344° |
| 2026-04-28 15:51 | 33.12071 | 73.21878 | 9480 ft | 293 kts | 344° |
| 2026-04-28 15:51 | 33.14003 | 73.21246 | 9343 ft | 283 kts | 344° |
| 2026-04-28 15:51 | 33.15879 | 73.20633 | 9204 ft | 274 kts | 344° |
| 2026-04-28 15:51 | 33.17691 | 73.20040 | 9092 ft | 265 kts | 344° |
| 2026-04-28 15:52 | 33.19432 | 73.19477 | 9025 ft | 251 kts | 347° |
| 2026-04-28 15:52 | 33.21105 | 73.19600 | 9000 ft | 242 kts | 25° |
| 2026-04-28 15:52 | 33.22389 | 73.20853 | 9014 ft | 243 kts | 56° |
| 2026-04-28 15:52 | 33.23059 | 73.22699 | 9001 ft | 243 kts | 80° |
| 2026-04-28 15:53 | 33.23049 | 73.24706 | 9001 ft | 243 kts | 105° |
| 2026-04-28 15:53 | 33.22287 | 73.26482 | 8999 ft | 242 kts | 134° |
| 2026-04-28 15:53 | 33.20965 | 73.27658 | 9002 ft | 241 kts | 158° |
| 2026-04-28 15:53 | 33.19347 | 73.28087 | 9001 ft | 235 kts | 174° |
| 2026-04-28 15:54 | 33.17716 | 73.28338 | 9016 ft | 238 kts | 173° |
| 2026-04-28 15:54 | 33.16069 | 73.28602 | 9016 ft | 240 kts | 173° |
| 2026-04-28 15:54 | 33.14405 | 73.28874 | 9002 ft | 242 kts | 173° |
| 2026-04-28 15:54 | 33.12732 | 73.29121 | 8994 ft | 239 kts | 180° |
| 2026-04-28 15:55 | 33.11155 | 73.28701 | 9002 ft | 237 kts | 210° |
| 2026-04-28 15:55 | 33.09919 | 73.27415 | 8998 ft | 238 kts | 236° |
| 2026-04-28 15:55 | 33.09275 | 73.25612 | 8999 ft | 238 kts | 261° |
| 2026-04-28 15:55 | 33.09376 | 73.23649 | 9001 ft | 239 kts | 289° |
| 2026-04-28 15:56 | 33.10223 | 73.21974 | 9002 ft | 240 kts | 316° |
| 2026-04-28 15:56 | 33.11608 | 73.20862 | 8995 ft | 242 kts | 341° |
| 2026-04-28 15:56 | 33.13242 | 73.20496 | 9014 ft | 237 kts | 353° |
| 2026-04-28 15:56 | 33.14874 | 73.20245 | 9013 ft | 241 kts | 352° |
| 2026-04-28 15:57 | 33.16558 | 73.19974 | 9004 ft | 244 kts | 352° |
| 2026-04-28 15:57 | 33.18251 | 73.19696 | 9011 ft | 246 kts | 352° |
| 2026-04-28 15:57 | 33.19952 | 73.19492 | 8990 ft | 244 kts | 4° |
| 2026-04-28 15:57 | 33.21507 | 73.20139 | 8997 ft | 241 kts | 38° |
| 2026-04-28 15:58 | 33.22530 | 73.21702 | 9022 ft | 242 kts | 70° |
| 2026-04-28 15:58 | 33.22741 | 73.23676 | 8997 ft | 242 kts | 101° |
| 2026-04-28 15:58 | 33.22091 | 73.25501 | 9003 ft | 241 kts | 131° |
| 2026-04-28 15:58 | 33.20764 | 73.26679 | 9011 ft | 240 kts | 160° |
| 2026-04-28 15:59 | 33.19157 | 73.27129 | 9014 ft | 238 kts | 173° |
| 2026-04-28 15:59 | 33.17507 | 73.27380 | 8999 ft | 240 kts | 174° |
| 2026-04-28 15:59 | 33.15845 | 73.27628 | 9003 ft | 241 kts | 174° |
| 2026-04-28 15:59 | 33.14197 | 73.27884 | 9003 ft | 241 kts | 173° |
| 2026-04-28 16:00 | 33.12537 | 73.28002 | 8993 ft | 237 kts | 191° |
| 2026-04-28 16:00 | 33.11061 | 73.27195 | 9001 ft | 234 kts | 223° |
| 2026-04-28 16:00 | 33.10153 | 73.25602 | 8999 ft | 234 kts | 252° |
| 2026-04-28 16:00 | 33.10020 | 73.23702 | 8997 ft | 235 kts | 281° |
| 2026-04-28 16:01 | 33.10702 | 73.21940 | 9002 ft | 237 kts | 311° |
| 2026-04-28 16:01 | 33.12033 | 73.20801 | 9002 ft | 239 kts | 340° |
| 2026-04-28 16:01 | 33.13646 | 73.20371 | 9016 ft | 238 kts | 352° |
| 2026-04-28 16:01 | 33.15306 | 73.20122 | 9003 ft | 242 kts | 353° |
| 2026-04-28 16:02 | 33.16991 | 73.19871 | 9003 ft | 245 kts | 353° |
| 2026-04-28 16:02 | 33.18690 | 73.19605 | 9002 ft | 246 kts | 352° |
| 2026-04-28 16:02 | 33.20356 | 73.19547 | 8995 ft | 243 kts | 13° |
| 2026-04-28 16:02 | 33.21824 | 73.20482 | 9000 ft | 242 kts | 47° |
| 2026-04-28 16:03 | 33.22644 | 73.22197 | 9010 ft | 240 kts | 78° |
| 2026-04-28 16:03 | 33.22612 | 73.24171 | 8999 ft | 239 kts | 109° |
| 2026-04-28 16:03 | 33.21764 | 73.25821 | 9002 ft | 237 kts | 140° |
| 2026-04-28 16:03 | 33.20346 | 73.26776 | 8998 ft | 235 kts | 166° |
| 2026-04-28 16:04 | 33.18737 | 73.27126 | 9020 ft | 235 kts | 174° |
| 2026-04-28 16:04 | 33.17097 | 73.27369 | 9003 ft | 239 kts | 174° |
| 2026-04-28 16:04 | 33.15441 | 73.27619 | 9003 ft | 241 kts | 174° |
| 2026-04-28 16:04 | 33.13766 | 73.27882 | 9002 ft | 242 kts | 173° |
| 2026-04-28 16:05 | 33.12134 | 73.27817 | 8995 ft | 238 kts | 199° |
| 2026-04-28 16:05 | 33.10772 | 73.26758 | 9003 ft | 236 kts | 231° |
| 2026-04-28 16:05 | 33.10066 | 73.25012 | 8995 ft | 237 kts | 261° |
| 2026-04-28 16:05 | 33.10211 | 73.23015 | 8919 ft | 252 kts | 290° |
| 2026-04-28 16:06 | 33.11242 | 73.21287 | 8506 ft | 264 kts | 323° |
| 2026-04-28 16:06 | 33.12939 | 73.20445 | 8121 ft | 264 kts | 351° |
| 2026-04-28 16:06 | 33.14750 | 73.20145 | 8007 ft | 271 kts | 353° |
| 2026-04-28 16:06 | 33.16640 | 73.19859 | 7864 ft | 275 kts | 353° |
| 2026-04-28 16:07 | 33.18542 | 73.19570 | 7727 ft | 274 kts | 353° |
| 2026-04-28 16:07 | 33.20439 | 73.19275 | 7591 ft | 273 kts | 352° |
| 2026-04-28 16:07 | 33.24193 | 73.18671 | 7327 ft | 270 kts | 352° |
| 2026-04-28 16:08 | 33.26033 | 73.18369 | 7201 ft | 269 kts | 352° |
| 2026-04-28 16:08 | 33.27886 | 73.18062 | 7072 ft | 268 kts | 352° |
| 2026-04-28 16:08 | 33.29735 | 73.17755 | 6945 ft | 267 kts | 352° |
| 2026-04-28 16:09 | 33.33415 | 73.17141 | 6687 ft | 265 kts | 352° |
| 2026-04-28 16:09 | 33.35233 | 73.16838 | 6562 ft | 264 kts | 352° |
| 2026-04-28 16:09 | 33.37045 | 73.16537 | 6443 ft | 259 kts | 352° |
| 2026-04-28 16:10 | 33.40458 | 73.15884 | 6293 ft | 243 kts | 339° |
| 2026-04-28 16:10 | 33.41860 | 73.14767 | 6173 ft | 244 kts | 316° |
| 2026-04-28 16:10 | 33.44370 | 73.11969 | 5672 ft | 245 kts | 316° |
| 2026-04-28 16:11 | 33.46813 | 73.09275 | 5185 ft | 236 kts | 316° |
| 2026-04-28 16:11 | 33.49193 | 73.06659 | 4661 ft | 228 kts | 316° |
| 2026-04-28 16:12 | 33.51353 | 73.04004 | 4163 ft | 213 kts | 295° |
| 2026-04-28 16:12 | 33.51808 | 73.02352 | 3996 ft | 206 kts | 284° |
| 2026-04-28 16:13 | 33.52420 | 72.99086 | 3891 ft | 193 kts | 280° |
| 2026-04-28 16:13 | 33.52656 | 72.97576 | 3900 ft | 181 kts | 279° |
| 2026-04-28 16:13 | 33.53117 | 72.94620 | 3434 ft | 177 kts | 279° |
| 2026-04-28 16:14 | 33.53543 | 72.91895 | 3003 ft | 161 kts | 279° |
| 2026-04-28 16:14 | 33.53935 | 72.89393 | 2585 ft | 144 kts | 279° |
| 2026-04-28 16:15 | 33.54298 | 72.87070 | 2210 ft | 138 kts | 279° |
| 2026-04-28 16:15 | 33.54474 | 72.85946 | 2032 ft | 137 kts | 280° |
| 2026-04-28 16:15 | 33.54649 | 72.84823 | 1861 ft | 138 kts | 280° |
| 2026-04-28 16:16 | 33.54967 | 72.82778 | 1768 ft | 92 kts | 281° |
| 2026-04-28 16:16 | 33.55052 | 72.82243 | 1769 ft | 57 kts | 281° |
| 2026-04-28 16:17 | 33.55148 | 72.81637 | 1764 ft | 13 kts | 292° |
| 2026-04-28 16:17 | 33.55227 | 72.81607 | 1769 ft | 13 kts | 7° |
| 2026-04-28 16:17 | 33.55310 | 72.81629 | 1774 ft | 10 kts | 32° |
| 2026-04-28 16:17 | 33.55328 | 72.81703 | 1772 ft | 10 kts | 95° |
| 2026-04-28 16:18 | 33.55319 | 72.81784 | 1773 ft | 10 kts | 101° |
| 2026-04-28 16:18 | 33.55306 | 72.81864 | 1774 ft | 10 kts | 101° |
| 2026-04-28 16:18 | 33.55293 | 72.81943 | 1774 ft | 10 kts | 100° |
| 2026-04-28 16:18 | 33.55271 | 72.82094 | 1776 ft | 27 kts | 100° |
| 2026-04-28 16:19 | 33.55237 | 72.82311 | 1776 ft | 25 kts | 101° |
| 2026-04-28 16:19 | 33.55207 | 72.82507 | 1776 ft | 23 kts | 100° |
| 2026-04-28 16:19 | 33.55180 | 72.82692 | 1776 ft | 23 kts | 101° |
| 2026-04-28 16:19 | 33.55151 | 72.82870 | 1776 ft | 20 kts | 96° |
| 2026-04-28 16:20 | 33.55194 | 72.83007 | 1776 ft | 17 kts | 56° |
| 2026-04-28 16:20 | 33.55262 | 72.83127 | 1775 ft | 17 kts | 56° |
| 2026-04-28 16:20 | 33.55331 | 72.83247 | 1777 ft | 17 kts | 54° |
| 2026-04-28 16:20 | 33.55354 | 72.83348 | 1777 ft | 12 kts | 96° |
| 2026-04-28 16:21 | 33.55350 | 72.83414 | 1775 ft | 7 kts | 73° |
| 2026-04-28 16:21 | 33.55389 | 72.83436 | 1778 ft | 6 kts | 6° |
| 2026-04-28 16:21 | 33.55422 | 72.83442 | 1776 ft | 3 kts | 10° |
| 2026-04-28 16:21 | 33.55424 | 72.83442 | 1776 ft | 0 kts | 10° |